KTCC/TCC METAR and TAF weather

Enter ICAO airport designator
Station Type Date Time Source
KTCC METAR 2020/01/28 04:53 UTC NOAA

KTCC 280453Z AUTO 01023G29KT 10SM OVC065 07/02 A2982 RMK AO2 PK WND 01029/0452 SLP078 T00720017


Station Type Date Time Source
KTCC Decoded METAR 2020/01/28 04:53 UTC NOAA

TUCUMCARI MUNICIPAL AIRPORT , NM, United States (KTCC) 35-11N 103-36W 1235M
Jan 27, 2020 - 11:53 PM EST / 2020.01.28 0453 UTC
Wind: from the N (010 degrees) at 26 MPH (23 KT) gusting to 33 MPH (29 KT):0
Visibility: 10 mile(s):0
Sky conditions: overcast
Temperature: 45.0 F (7.2 C)
Dew Point: 35.1 F (1.7 C)
Relative Humidity: 68%
Pressure (altimeter): 29.82 in. Hg (1009 hPa)
ob: KTCC 280453Z AUTO 01023G29KT 10SM OVC065 07/02 A2982 RMK AO2 PK WND 01029/0452 SLP078 T00720017
cycle: 5

Station Type Date Time Source
KTCC TAF 2020/01/27 18:33 UTC NOAA

TAF KTCC 271730Z 2718/2818 27009KT P6SM SKC
FM272100 28014KT P6SM BKN150
FM280100 35018G28KT P6SM SCT050 BKN100
FM280500 01026G36KT P6SM VCSH SCT020 BKN040 PROB30 2806/2810 3SM -SHRASN SCT015 BKN025
FM281200 01018G28KT P6SM SCT100

Example: see airport list